Time;durP1;ratioP1;P1;durP2;ratioP2;P2;SDS_P1;SDS_P2;PMS_P1;PMS_P2;Temp;Humidity;BMP_temperature;BMP_pressure;BME280_temperature;BME280_humidity;BME280_pressure;Samples;Min_cycle;Max_cycle;Signal;HPM_P1;HPM_P2
2021/05/07 00:00:40;;;;;;;4.57;4.05;;;;;;;16.56;48.82;99326.22;5044427;28;20046;-74
2021/05/07 00:03:05;;;;;;;13.70;4.78;;;;;;;16.52;48.88;99330.97;5051951;28;20134;-69
2021/05/07 00:05:31;;;;;;;6.72;4.38;;;;;;;16.82;47.89;99316.91;5063761;28;20649;-69
2021/05/07 00:07:57;;;;;;;5.53;4.05;;;;;;;16.89;47.98;99315.38;5050484;28;20411;-74
2021/05/07 00:10:24;;;;;;;6.93;4.53;;;;;;;16.96;47.28;99327.59;5033188;28;20032;-69
2021/05/07 00:12:49;;;;;;;8.55;4.53;;;;;;;17.11;46.50;99322.16;5060219;28;20556;-70
2021/05/07 00:15:15;;;;;;;5.38;3.85;;;;;;;16.90;47.83;99325.50;5059288;28;20028;-73
2021/05/07 00:17:40;;;;;;;4.22;3.80;;;;;;;16.84;48.17;99325.00;5057000;28;20033;-74
2021/05/07 00:20:07;;;;;;;7.13;4.38;;;;;;;16.74;48.38;99326.50;5058486;28;20029;-70
2021/05/07 00:22:32;;;;;;;12.60;4.75;;;;;;;16.81;48.39;99320.91;5050955;28;20384;-73
2021/05/07 00:24:58;;;;;;;9.60;4.45;;;;;;;16.84;48.18;99320.19;5070600;28;20039;-74
2021/05/07 00:27:23;;;;;;;6.55;4.05;;;;;;;16.66;49.12;99321.91;5047871;28;20047;-73
2021/05/07 00:29:49;;;;;;;6.57;4.63;;;;;;;16.73;48.79;99319.22;5047330;28;20016;-69
2021/05/07 00:32:17;;;;;;;8.27;4.93;;;;;;;16.13;50.07;99321.47;5056497;28;20090;-69
2021/05/07 00:34:43;;;;;;;5.70;5.03;;;;;;;16.46;49.27;99312.75;5053712;28;20033;-73
2021/05/07 00:37:08;;;;;;;10.60;5.50;;;;;;;16.49;49.25;99321.28;5054026;28;20032;-69
2021/05/07 00:39:33;;;;;;;17.33;9.40;;;;;;;16.51;49.12;99320.88;5038607;28;20032;-73
2021/05/07 00:42:06;;;;;;;26.08;9.80;;;;;;;16.40;48.80;99318.69;5069447;28;20025;-73
2021/05/07 00:44:33;;;;;;;8.43;5.65;;;;;;;16.76;47.27;99323.25;5061865;28;20031;-73
2021/05/07 00:47:05;;;;;;;8.75;5.25;;;;;;;16.62;47.90;99313.38;5038370;28;20086;-73
2021/05/07 00:49:35;;;;;;;8.75;5.32;;;;;;;16.37;48.34;99308.16;5070176;28;20478;-69
2021/05/07 00:52:02;;;;;;;5.88;4.90;;;;;;;16.02;50.05;99311.22;5042749;28;20029;-73
2021/05/07 00:54:29;;;;;;;7.30;4.90;;;;;;;15.76;51.08;99316.34;5039427;28;20045;-69
2021/05/07 00:56:55;;;;;;;6.93;5.00;;;;;;;15.99;50.47;99318.41;5043391;28;20067;-70
2021/05/07 00:59:21;;;;;;;6.25;4.60;;;;;;;16.00;49.12;99328.50;5060692;28;20421;-73
2021/05/07 01:01:48;;;;;;;4.90;4.35;;;;;;;15.90;49.69;99323.47;5057346;28;20060;-69
2021/05/07 01:04:13;;;;;;;8.93;4.85;;;;;;;15.91;49.87;99325.09;5053116;28;20031;-69
2021/05/07 01:06:39;;;;;;;9.35;4.72;;;;;;;15.91;49.60;99325.94;5053779;28;20045;-73
2021/05/07 01:09:05;;;;;;;9.90;5.18;;;;;;;15.90;49.78;99334.75;5070156;28;20036;-73
2021/05/07 01:11:32;;;;;;;6.55;4.47;;;;;;;15.99;50.01;99332.53;5064611;28;20471;-73
2021/05/07 01:13:57;;;;;;;7.32;4.30;;;;;;;16.04;48.96;99345.50;5066841;28;20409;-72
2021/05/07 01:16:22;;;;;;;6.18;4.32;;;;;;;16.12;48.80;99335.97;5061670;28;20116;-73
2021/05/07 01:18:48;;;;;;;5.15;4.07;;;;;;;16.08;49.03;99330.28;5058120;28;20025;-69
2021/05/07 01:21:13;;;;;;;5.45;4.32;;;;;;;15.90;49.97;99337.56;5057573;28;20017;-69
2021/05/07 01:23:39;;;;;;;5.57;5.07;;;;;;;16.03;49.89;99339.03;5037938;28;20024;-69
2021/05/07 01:26:04;;;;;;;7.38;5.20;;;;;;;16.06;49.86;99332.66;5066112;28;20123;-73
2021/05/07 01:28:32;;;;;;;7.28;5.03;;;;;;;15.90;50.96;99338.41;5071851;28;20032;-73
2021/05/07 01:30:58;;;;;;;6.68;4.95;;;;;;;16.03;50.04;99333.38;5052886;28;20036;-73
2021/05/07 01:33:23;;;;;;;7.88;5.13;;;;;;;15.82;51.02;99337.44;5052383;28;20028;-69
2021/05/07 01:35:53;;;;;;;9.55;5.10;;;;;;;15.74;51.30;99338.47;5056803;28;20025;-73
2021/05/07 01:38:20;;;;;;;5.13;4.40;;;;;;;15.77;51.18;99348.19;5034778;28;20029;-70
2021/05/07 01:40:51;;;;;;;5.57;5.07;;;;;;;15.83;51.23;99347.53;5034747;28;20502;-73
2021/05/07 01:43:17;;;;;;;7.13;4.55;;;;;;;15.84;50.24;99351.97;5054478;28;20097;-69
2021/05/07 01:45:44;;;;;;;6.57;5.15;;;;;;;15.61;51.11;99354.72;5056729;28;20036;-73
2021/05/07 01:48:10;;;;;;;7.63;5.30;;;;;;;15.69;50.62;99350.06;5061238;28;20043;-69
2021/05/07 01:50:38;;;;;;;6.85;5.35;;;;;;;15.63;50.91;99345.91;5056698;28;20159;-69
2021/05/07 01:53:05;;;;;;;6.28;5.40;;;;;;;15.60;51.15;99353.09;5065528;28;20036;-69
2021/05/07 01:55:39;;;;;;;13.38;5.05;;;;;;;15.55;51.18;99340.13;5071766;28;20036;-70
2021/05/07 01:58:06;;;;;;;9.60;4.80;;;;;;;15.52;51.04;99337.25;5053874;28;20533;-69
2021/05/07 02:00:31;;;;;;;6.63;4.45;;;;;;;15.61;50.89;99337.00;5071302;28;20077;-69
2021/05/07 02:02:59;;;;;;;8.07;5.57;;;;;;;15.53;50.88;99345.31;5067815;28;20261;-72
2021/05/07 02:05:27;;;;;;;13.02;5.95;;;;;;;15.63;50.92;99337.44;5062754;28;20045;-73
2021/05/07 02:07:53;;;;;;;8.18;4.75;;;;;;;15.55;50.68;99337.31;5064733;28;20036;-73
2021/05/07 02:10:23;;;;;;;9.82;5.82;;;;;;;15.57;50.78;99334.13;5063700;28;20037;-73
2021/05/07 02:12:50;;;;;;;8.80;5.47;;;;;;;15.38;50.77;99340.59;5044782;28;20047;-69
2021/05/07 02:15:18;;;;;;;7.07;5.28;;;;;;;15.28;51.36;99339.97;5065690;28;20089;-72
2021/05/07 02:17:44;;;;;;;7.60;5.25;;;;;;;15.14;52.08;99342.50;5043224;28;20029;-73
2021/05/07 02:20:13;;;;;;;6.55;4.70;;;;;;;15.25;51.30;99343.53;5047877;28;20127;-73
2021/05/07 02:22:43;;;;;;;5.60;4.20;;;;;;;15.16;50.87;99340.13;5070769;28;20040;-69
2021/05/07 02:25:10;;;;;;;6.45;4.32;;;;;;;14.79;51.98;99346.97;5070566;28;20111;-73
2021/05/07 02:27:36;;;;;;;6.82;4.50;;;;;;;14.50;52.03;99339.81;5069638;28;20438;-73
2021/05/07 02:30:02;;;;;;;8.25;4.15;;;;;;;14.26;52.59;99336.81;5042795;28;20025;-73
2021/05/07 02:32:28;;;;;;;8.27;4.65;;;;;;;14.06;53.06;99347.16;5059806;28;20072;-73
2021/05/07 02:34:53;;;;;;;5.57;4.90;;;;;;;14.02;53.32;99343.47;5059642;28;20475;-69
2021/05/07 02:37:18;;;;;;;9.82;6.25;;;;;;;13.80;54.66;99337.25;5051019;28;20036;-73
2021/05/07 02:39:44;;;;;;;8.50;4.70;;;;;;;13.51;54.92;99336.44;5049012;28;20020;-69
2021/05/07 02:42:10;;;;;;;5.25;4.18;;;;;;;13.58;55.42;99342.28;5059966;28;20475;-73
2021/05/07 02:44:35;;;;;;;14.30;5.00;;;;;;;13.51;55.52;99339.25;5064494;28;20071;-73
2021/05/07 02:47:04;;;;;;;10.02;5.32;;;;;;;13.66;55.28;99337.69;5060461;28;20471;-69
2021/05/07 02:49:34;;;;;;;8.25;5.22;;;;;;;13.85;53.39;99345.41;5035594;28;20017;-69
2021/05/07 02:52:01;;;;;;;13.88;5.05;;;;;;;13.81;53.49;99350.13;5036536;28;20041;-72
2021/05/07 02:54:26;;;;;;;12.48;5.80;;;;;;;13.70;53.84;99349.03;5053400;28;20020;-69
2021/05/07 02:56:52;;;;;;;8.63;4.57;;;;;;;13.74;53.95;99349.94;5040274;28;20388;-73
2021/05/07 02:59:17;;;;;;;5.03;4.55;;;;;;;13.64;54.55;99353.28;5053201;28;20505;-69
2021/05/07 03:01:43;;;;;;;5.90;4.82;;;;;;;13.54;54.61;99355.44;5055134;28;20024;-69
2021/05/07 03:04:08;;;;;;;6.70;4.45;;;;;;;13.59;54.53;99355.16;5053168;28;20021;-69
2021/05/07 03:06:34;;;;;;;9.02;4.95;;;;;;;13.51;54.39;99350.50;5068274;28;20049;-69
2021/05/07 03:09:00;;;;;;;15.02;4.35;;;;;;;13.51;54.74;99353.31;5058434;28;20021;-73
2021/05/07 03:11:26;;;;;;;6.07;4.47;;;;;;;13.37;55.36;99356.50;5060586;28;20035;-69
2021/05/07 03:13:53;;;;;;;7.40;4.70;;;;;;;13.39;54.89;99361.75;5039741;28;20024;-73
2021/05/07 03:16:21;;;;;;;7.32;5.28;;;;;;;13.24;55.23;99366.97;5035286;28;20068;-73
2021/05/07 03:18:47;;;;;;;6.22;5.18;;;;;;;13.17;55.87;99361.16;5054244;28;20020;-69
2021/05/07 03:21:12;;;;;;;7.10;4.63;;;;;;;12.95;56.19;99360.50;5052696;28;20090;-73
2021/05/07 03:23:38;;;;;;;10.13;5.15;;;;;;;12.94;56.52;99372.91;5057898;28;20596;-69
2021/05/07 03:26:03;;;;;;;21.50;5.78;;;;;;;13.02;56.46;99363.50;5069605;28;20024;-69
2021/05/07 03:28:28;;;;;;;9.85;5.07;;;;;;;13.09;56.10;99362.09;5070484;28;20410;-73
2021/05/07 03:30:54;;;;;;;7.18;5.32;;;;;;;13.29;55.98;99363.91;5064618;28;20020;-73
2021/05/07 03:33:19;;;;;;;6.07;5.03;;;;;;;13.38;55.54;99366.56;5064883;28;20051;-69
2021/05/07 03:35:45;;;;;;;7.88;4.97;;;;;;;13.33;55.97;99359.22;5055343;28;20028;-69
2021/05/07 03:38:11;;;;;;;8.45;5.80;;;;;;;13.47;55.79;99355.22;5050193;28;20036;-73
2021/05/07 03:40:36;;;;;;;12.45;5.43;;;;;;;13.64;55.21;99359.72;5032260;28;20029;-73
2021/05/07 03:43:02;;;;;;;9.00;5.10;;;;;;;13.61;55.39;99366.84;5041943;28;20395;-73
2021/05/07 03:45:28;;;;;;;12.63;6.95;;;;;;;13.53;55.64;99356.59;5055201;28;20495;-72
2021/05/07 03:47:54;;;;;;;10.35;6.57;;;;;;;13.36;56.34;99360.50;5059220;28;20032;-71
2021/05/07 03:50:19;;;;;;;11.50;5.75;;;;;;;13.39;55.95;99370.19;5059441;28;20496;-73
2021/05/07 03:52:45;;;;;;;13.63;5.53;;;;;;;13.30;56.14;99368.38;5051185;28;20033;-69
2021/05/07 03:55:12;;;;;;;10.43;5.55;;;;;;;13.32;55.84;99368.00;5051234;28;20154;-69
2021/05/07 03:57:38;;;;;;;13.60;6.90;;;;;;;13.28;56.40;99362.28;5033041;28;20041;-72
2021/05/07 04:00:05;;;;;;;13.75;6.07;;;;;;;13.17;56.62;99367.56;5041795;28;20115;-69
2021/05/07 04:02:31;;;;;;;12.05;5.30;;;;;;;13.31;56.32;99372.81;5066037;28;20036;-69
2021/05/07 04:04:56;;;;;;;7.90;6.18;;;;;;;13.34;55.96;99382.50;5065791;28;20492;-69
2021/05/07 04:07:22;;;;;;;16.00;7.60;;;;;;;13.33;56.34;99381.69;5061785;28;20044;-68
2021/05/07 04:14:48;;;;;;;15.20;10.85;;;;;;;13.55;56.66;99390.78;5066277;28;20028;-73
2021/05/07 04:17:13;;;;;;;24.60;12.10;;;;;;;13.57;56.51;99390.41;5063203;28;20044;-69
2021/05/07 04:19:39;;;;;;;29.88;11.75;;;;;;;13.61;56.39;99392.16;5058563;28;20477;-73
2021/05/07 04:22:04;;;;;;;22.35;8.82;;;;;;;13.64;56.73;99389.81;5032262;28;20569;-69
2021/05/07 04:24:30;;;;;;;16.77;8.30;;;;;;;13.64;57.09;99392.63;5049918;28;20108;-69
2021/05/07 04:26:55;;;;;;;21.13;8.23;;;;;;;13.79;56.43;99402.25;5052333;28;20083;-74
2021/05/07 04:29:22;;;;;;;12.27;6.93;;;;;;;13.83;56.13;99392.75;5065307;28;20107;-68
2021/05/07 04:31:48;;;;;;;8.75;7.50;;;;;;;13.78;56.42;99401.47;5047054;28;20044;-69
2021/05/07 04:34:14;;;;;;;14.52;8.02;;;;;;;13.75;57.24;99399.34;5049125;28;20020;-68
2021/05/07 04:36:39;;;;;;;12.05;7.22;;;;;;;13.89;57.22;99401.75;5066067;28;20107;-69
2021/05/07 04:39:05;;;;;;;10.80;5.72;;;;;;;14.09;56.09;99399.06;5066377;28;20021;-74
2021/05/07 04:41:31;;;;;;;10.80;6.20;;;;;;;14.25;56.31;99405.53;5045918;28;20043;-69
2021/05/07 04:43:56;;;;;;;7.30;5.60;;;;;;;14.16;56.35;99408.50;5066016;28;20021;-73
2021/05/07 04:46:21;;;;;;;8.07;5.05;;;;;;;14.18;56.36;99408.97;5064979;28;20136;-73
2021/05/07 04:48:47;;;;;;;16.23;6.20;;;;;;;14.26;56.24;99409.16;5050606;28;20035;-69
2021/05/07 04:51:12;;;;;;;6.32;5.05;;;;;;;14.48;55.36;99399.28;5067669;28;20035;-70
2021/05/07 04:53:38;;;;;;;12.52;6.03;;;;;;;14.71;55.08;99402.25;5045178;28;20033;-68
2021/05/07 04:56:03;;;;;;;16.33;6.25;;;;;;;14.77;54.77;99405.63;5049472;28;20070;-74
2021/05/07 04:58:29;;;;;;;6.32;5.68;;;;;;;14.69;54.91;99412.25;5067560;28;20086;-70
2021/05/07 05:00:54;;;;;;;18.58;5.15;;;;;;;14.75;55.62;99416.44;5071921;28;20013;-69
2021/05/07 05:03:20;;;;;;;6.72;5.00;;;;;;;14.74;55.28;99412.81;5066900;28;20507;-73
2021/05/07 05:05:45;;;;;;;6.80;4.82;;;;;;;14.94;55.21;99420.50;5071926;28;20051;-75
2021/05/07 05:08:11;;;;;;;5.68;5.07;;;;;;;15.12;54.99;99424.56;5072102;28;20418;-69
2021/05/07 05:10:36;;;;;;;10.55;4.88;;;;;;;15.07;54.78;99424.00;5071120;28;20025;-69
2021/05/07 05:13:01;;;;;;;11.52;5.00;;;;;;;15.35;54.68;99423.06;5054110;28;20024;-66
2021/05/07 05:15:27;;;;;;;6.88;4.50;;;;;;;15.37;54.04;99417.84;5071805;28;20016;-73
2021/05/07 05:17:52;;;;;;;12.02;4.80;;;;;;;15.38;54.19;99419.50;5072581;28;20466;-72
2021/05/07 05:20:18;;;;;;;8.27;5.50;;;;;;;15.49;54.57;99417.72;5054146;28;20033;-69
2021/05/07 05:22:44;;;;;;;6.60;5.35;;;;;;;15.72;52.56;99420.59;5066281;28;20418;-73
2021/05/07 05:25:10;;;;;;;4.78;4.32;;;;;;;15.80;52.28;99415.91;5070068;28;20505;-72
2021/05/07 05:27:36;;;;;;;7.78;5.35;;;;;;;15.88;51.11;99422.56;5070149;28;20025;-74
2021/05/07 05:30:04;;;;;;;7.75;4.60;;;;;;;16.13;51.17;99417.41;5050896;28;20498;-72
2021/05/07 05:32:29;;;;;;;6.55;4.57;;;;;;;16.26;50.69;99431.34;5070867;28;20037;-76
2021/05/07 05:34:55;;;;;;;7.03;4.68;;;;;;;16.22;51.56;99425.63;5064346;28;20017;-75
2021/05/07 05:37:20;;;;;;;10.95;5.30;;;;;;;16.35;51.81;99420.63;5052852;28;20116;-68
2021/05/07 05:39:46;;;;;;;14.75;6.40;;;;;;;16.35;52.19;99411.34;5039169;28;20486;-75
2021/05/07 05:42:12;;;;;;;14.45;5.43;;;;;;;16.29;51.80;99413.69;5047618;28;20606;-76
2021/05/07 05:44:37;;;;;;;12.77;4.93;;;;;;;16.42;51.79;99409.47;5065129;28;20086;-76
2021/05/07 05:47:06;;;;;;;8.57;4.85;;;;;;;16.48;51.72;99411.97;5041763;28;20037;-69
2021/05/07 05:49:31;;;;;;;6.93;5.32;;;;;;;16.30;52.05;99420.13;5061568;28;20118;-68
2021/05/07 05:51:57;;;;;;;7.68;4.57;;;;;;;16.40;52.20;99420.31;5056124;28;20095;-67
2021/05/07 05:54:22;;;;;;;12.43;4.43;;;;;;;16.30;52.80;99420.13;5036424;28;20483;-71
2021/05/07 05:56:48;;;;;;;7.20;4.57;;;;;;;16.70;50.95;99413.13;5038347;28;20482;-72
2021/05/07 05:59:16;;;;;;;6.88;4.45;;;;;;;16.97;50.59;99413.97;5066390;28;20032;-72
2021/05/07 06:01:41;;;;;;;9.52;5.70;;;;;;;17.04;49.64;99413.28;5071364;28;20028;-74
2021/05/07 06:04:07;;;;;;;7.78;5.80;;;;;;;16.55;50.69;99421.38;5036717;28;20547;-69
2021/05/07 06:06:32;;;;;;;6.93;4.68;;;;;;;16.94;49.84;99417.56;5057878;28;20053;-72
2021/05/07 06:08:58;;;;;;;8.95;4.43;;;;;;;17.05;49.55;99406.44;5067214;28;20028;-70
2021/05/07 06:11:23;;;;;;;7.65;4.88;;;;;;;17.21;50.13;99411.94;5054357;28;20044;-69
2021/05/07 06:13:49;;;;;;;8.18;4.72;;;;;;;17.09;50.43;99410.16;5038976;28;20016;-71
2021/05/07 06:16:15;;;;;;;9.55;4.28;;;;;;;17.28;48.58;99408.38;5056845;28;20044;-74
2021/05/07 06:18:41;;;;;;;8.73;4.07;;;;;;;17.09;50.19;99410.16;5037645;28;20108;-71
2021/05/07 06:21:06;;;;;;;9.40;4.38;;;;;;;17.22;49.70;99407.09;5035811;28;20017;-71
2021/05/07 06:23:32;;;;;;;12.65;5.32;;;;;;;17.45;49.79;99401.34;5035998;28;20462;-74
2021/05/07 06:25:58;;;;;;;7.00;4.72;;;;;;;17.86;48.47;99395.00;5048041;28;20040;-73
2021/05/07 06:28:23;;;;;;;7.50;4.32;;;;;;;18.13;48.52;99403.38;5066097;28;20415;-73
2021/05/07 06:30:49;;;;;;;4.80;4.20;;;;;;;18.39;46.73;99401.59;5064502;28;20024;-72
2021/05/07 06:33:14;;;;;;;9.77;4.55;;;;;;;18.66;45.78;99410.75;5047562;28;20028;-72
2021/05/07 06:35:39;;;;;;;8.20;4.35;;;;;;;18.93;47.48;99410.56;5055924;28;20100;-74
2021/05/07 06:38:09;;;;;;;5.50;4.15;;;;;;;18.73;45.93;99406.38;5050402;28;20245;-72
2021/05/07 06:40:35;;;;;;;8.93;4.28;;;;;;;18.89;47.47;99409.72;5051513;28;20033;-71
2021/05/07 06:43:01;;;;;;;13.80;4.88;;;;;;;19.34;47.04;99409.63;5038473;28;20082;-71
2021/05/07 06:45:27;;;;;;;15.57;4.85;;;;;;;19.67;45.12;99395.63;5064449;28;20033;-75
2021/05/07 06:47:52;;;;;;;7.03;3.63;;;;;;;19.73;44.04;99398.84;5033718;28;20510;-73
2021/05/07 06:50:18;;;;;;;8.52;4.63;;;;;;;19.79;44.46;99397.28;5034960;28;20486;-74
2021/05/07 06:52:44;;;;;;;10.02;4.90;;;;;;;20.00;43.73;99382.34;5045311;28;20043;-71
2021/05/07 06:55:11;;;;;;;10.95;4.18;;;;;;;20.11;42.65;99388.06;5056099;28;20422;-72
2021/05/07 06:57:37;;;;;;;4.45;3.50;;;;;;;20.08;43.88;99388.84;5063857;28;20055;-72
2021/05/07 07:00:05;;;;;;;10.82;4.85;;;;;;;20.40;43.61;99390.16;5046736;28;20024;-71
2021/05/07 07:02:31;;;;;;;5.45;3.58;;;;;;;20.60;42.28;99385.69;5050353;28;20166;-72
2021/05/07 07:04:57;;;;;;;9.77;3.65;;;;;;;20.47;40.42;99382.44;5052007;28;20532;-71
2021/05/07 07:07:25;;;;;;;5.55;3.58;;;;;;;20.43;41.43;99375.13;5069278;28;20094;-71
2021/05/07 07:09:50;;;;;;;11.57;5.00;;;;;;;20.78;41.93;99362.13;5066665;28;20033;-73
2021/05/07 07:12:16;;;;;;;8.43;3.90;;;;;;;21.05;39.33;99356.03;5054885;28;20479;-73
2021/05/07 07:14:41;;;;;;;7.53;3.83;;;;;;;20.88;39.90;99367.03;5054489;28;20622;-73
2021/05/07 07:17:07;;;;;;;20.23;4.38;;;;;;;20.83;40.08;99361.75;5040561;28;20029;-73
2021/05/07 07:19:33;;;;;;;5.53;3.78;;;;;;;20.94;40.40;99367.44;5057130;28;20033;-73
2021/05/07 07:21:59;;;;;;;11.00;3.53;;;;;;;20.88;40.79;99369.88;5040594;28;20063;-73
2021/05/07 07:24:26;;;;;;;8.13;3.60;;;;;;;21.08;40.78;99366.56;5042298;28;20060;-73
2021/05/07 07:26:51;;;;;;;21.73;3.67;;;;;;;21.16;40.28;99355.97;5057801;28;20047;-73
2021/05/07 07:29:17;;;;;;;6.15;3.97;;;;;;;21.30;40.67;99355.13;5063899;28;20103;-72
2021/05/07 07:31:42;;;;;;;6.22;3.33;;;;;;;21.65;39.18;99356.22;5065148;28;20471;-71
2021/05/07 07:34:07;;;;;;;6.88;3.60;;;;;;;21.92;38.93;99352.06;5063773;28;20498;-72
2021/05/07 07:36:33;;;;;;;7.80;3.85;;;;;;;21.94;38.78;99356.09;5035918;28;20029;-71
2021/05/07 07:38:58;;;;;;;5.53;4.22;;;;;;;21.60;40.03;99348.13;5047385;28;20027;-71
2021/05/07 07:41:24;;;;;;;8.27;3.78;;;;;;;21.94;39.45;99353.22;5067901;28;20086;-71
2021/05/07 07:43:49;;;;;;;6.38;4.13;;;;;;;22.41;37.97;99344.38;5065800;28;20028;-70
2021/05/07 07:46:15;;;;;;;8.25;4.05;;;;;;;22.39;37.35;99332.59;5043306;28;20045;-72
2021/05/07 07:48:41;;;;;;;14.73;3.92;;;;;;;22.15;38.33;99328.69;5045620;28;20102;-71
2021/05/07 07:51:06;;;;;;;7.32;4.03;;;;;;;22.26;38.25;99323.72;5036639;28;20507;-73
2021/05/07 07:53:32;;;;;;;9.63;3.60;;;;;;;22.10;39.01;99329.16;5066660;28;20025;-73
2021/05/07 07:55:58;;;;;;;8.07;4.15;;;;;;;22.23;38.31;99335.16;5057294;28;20037;-70
2021/05/07 07:58:25;;;;;;;11.88;3.75;;;;;;;22.03;38.17;99332.88;5067151;28;20029;-71
2021/05/07 08:00:50;;;;;;;12.95;4.13;;;;;;;21.72;40.17;99324.09;5052088;28;20027;-71
2021/05/07 08:03:16;;;;;;;12.35;3.78;;;;;;;21.81;40.58;99321.59;5051043;28;20367;-73
2021/05/07 08:05:42;;;;;;;7.18;3.58;;;;;;;22.29;39.19;99311.50;5063901;28;20101;-70
2021/05/07 08:08:07;;;;;;;11.23;4.18;;;;;;;22.33;39.18;99316.38;5044568;28;20085;-75
2021/05/07 08:10:33;;;;;;;10.35;4.10;;;;;;;22.56;38.52;99313.75;5042293;28;20048;-72
2021/05/07 08:12:58;;;;;;;6.80;4.22;;;;;;;22.95;37.86;99317.41;5061415;28;20437;-71
2021/05/07 08:15:26;;;;;;;11.25;4.15;;;;;;;22.95;37.27;99311.72;5057481;28;20028;-71
2021/05/07 08:17:51;;;;;;;5.95;3.83;;;;;;;22.92;38.10;99303.19;5053481;28;20037;-71
2021/05/07 08:20:17;;;;;;;11.32;4.10;;;;;;;22.78;37.46;99292.78;5055743;28;20020;-71
2021/05/07 08:22:43;;;;;;;6.60;3.95;;;;;;;22.97;38.42;99282.78;5042475;28;20047;-71
2021/05/07 08:25:11;;;;;;;6.07;3.63;;;;;;;23.12;38.31;99277.75;5065263;28;20081;-71
2021/05/07 08:27:41;;;;;;;7.20;3.60;;;;;;;23.23;36.21;99275.56;5051378;28;20288;-71
2021/05/07 08:30:08;;;;;;;11.93;4.28;;;;;;;23.00;37.71;99284.78;5046667;28;20463;-72
2021/05/07 08:32:34;;;;;;;12.57;4.43;;;;;;;23.16;37.98;99286.22;5067381;28;20426;-72
2021/05/07 08:35:00;;;;;;;6.40;3.28;;;;;;;23.44;36.92;99290.78;5068325;28;20021;-72
2021/05/07 08:37:26;;;;;;;10.50;3.85;;;;;;;23.82;35.13;99292.72;5036113;28;20048;-72
2021/05/07 08:39:52;;;;;;;6.70;3.25;;;;;;;23.89;35.76;99291.81;5053767;28;20391;-72
2021/05/07 08:42:18;;;;;;;5.28;4.18;;;;;;;23.55;36.14;99291.47;5062748;28;20028;-71
2021/05/07 08:44:44;;;;;;;3.80;3.42;;;;;;;23.78;35.74;99277.69;5046872;28;20032;-71
2021/05/07 08:47:09;;;;;;;14.00;3.85;;;;;;;24.09;34.67;99269.09;5042189;28;20090;-72
2021/05/07 08:49:35;;;;;;;4.32;3.28;;;;;;;24.03;36.11;99259.38;5064669;28;20512;-72
2021/05/07 08:52:01;;;;;;;7.03;3.45;;;;;;;23.79;35.74;99270.75;5058614;28;20394;-72
2021/05/07 08:54:28;;;;;;;7.13;3.17;;;;;;;23.89;36.04;99240.41;5058696;28;20028;-69
2021/05/07 08:56:54;;;;;;;6.40;3.20;;;;;;;23.88;36.27;99248.16;5052391;28;20057;-69
2021/05/07 08:59:20;;;;;;;7.05;3.28;;;;;;;24.14;35.66;99256.34;5045915;28;20070;-73
2021/05/07 09:01:48;;;;;;;8.80;3.78;;;;;;;23.87;34.50;99249.41;5053106;28;20059;-72
2021/05/07 09:04:16;;;;;;;4.53;3.35;;;;;;;23.46;35.93;99270.41;5067188;28;20475;-71
2021/05/07 09:06:53;;;;;;;8.43;3.50;;;;;;;23.77;35.43;99267.50;5067408;28;20106;-72
2021/05/07 09:09:30;;;;;;;8.02;4.90;;;;;;;23.60;35.87;99275.91;5058416;28;20123;-71
2021/05/07 09:11:58;;;;;;;9.98;3.38;;;;;;;24.08;34.76;99274.00;5048209;28;20056;-72
2021/05/07 09:14:24;;;;;;;9.18;3.35;;;;;;;24.30;34.28;99264.25;5062472;28;20060;-71
2021/05/07 09:16:57;;;;;;;6.68;4.57;;;;;;;24.28;34.29;99264.69;5071576;28;20035;-72
2021/05/07 09:19:35;;;;;;;7.18;4.03;;;;;;;24.25;34.13;99269.22;5052638;28;20426;-71
2021/05/07 09:22:00;;;;;;;10.57;4.05;;;;;;;24.18;34.90;99260.78;5067424;28;20029;-72
2021/05/07 09:24:40;;;;;;;8.30;4.00;;;;;;;24.56;34.12;99248.28;5064497;28;20031;-73
2021/05/07 09:27:06;;;;;;;8.00;4.18;;;;;;;24.43;35.06;99244.41;5057437;28;20418;-72
2021/05/07 09:29:32;;;;;;;16.85;3.97;;;;;;;24.68;34.59;99233.34;5063218;28;20064;-72
2021/05/07 09:32:03;;;;;;;13.65;3.88;;;;;;;24.39;34.60;99225.28;5072201;28;20029;-71
2021/05/07 09:34:36;;;;;;;10.52;3.85;;;;;;;24.57;34.76;99224.16;5061344;28;20028;-72
2021/05/07 09:37:12;;;;;;;10.73;4.43;;;;;;;24.71;35.66;99225.91;5042974;28;20093;-72
2021/05/07 09:39:38;;;;;;;14.73;4.70;;;;;;;24.38;34.81;99220.81;5052663;28;20029;-71
2021/05/07 09:42:03;;;;;;;5.40;3.55;;;;;;;24.25;34.86;99206.38;5053031;28;20098;-71
2021/05/07 09:44:34;;;;;;;7.95;4.43;;;;;;;24.23;35.49;99202.34;5053945;28;20025;-70
2021/05/07 09:47:00;;;;;;;42.13;6.03;;;;;;;24.62;33.90;99202.84;5047281;28;20041;-71
2021/05/07 09:49:30;;;;;;;18.73;5.38;;;;;;;24.45;35.14;99217.03;5051555;28;20041;-70
2021/05/07 09:51:57;;;;;;;11.77;5.55;;;;;;;24.27;35.86;99222.28;5034491;28;20037;-72
2021/05/07 09:54:23;;;;;;;11.77;4.57;;;;;;;24.21;35.42;99205.63;5055497;28;20033;-72
2021/05/07 09:56:50;;;;;;;8.13;4.40;;;;;;;24.24;35.86;99198.22;5052334;28;20045;-74
2021/05/07 09:59:18;;;;;;;14.73;5.60;;;;;;;24.35;35.89;99192.31;5041985;28;20044;-74
2021/05/07 10:01:45;;;;;;;16.60;5.97;;;;;;;24.20;35.92;99186.06;5066708;28;20035;-73
2021/05/07 10:04:16;;;;;;;9.43;4.57;;;;;;;24.27;36.11;99180.22;5051525;28;20020;-72
2021/05/07 10:06:42;;;;;;;8.68;4.63;;;;;;;24.28;35.27;99181.03;5068974;28;20533;-71
2021/05/07 10:09:10;;;;;;;12.38;5.00;;;;;;;24.19;35.25;99184.44;5063579;28;20444;-74
2021/05/07 10:11:45;;;;;;;8.88;5.07;;;;;;;24.52;33.85;99184.63;5062893;28;20090;-73
2021/05/07 10:14:13;;;;;;;7.93;4.50;;;;;;;24.13;34.05;99186.19;5069955;28;20032;-73
2021/05/07 10:16:39;;;;;;;12.95;5.88;;;;;;;24.23;35.68;99197.41;5058868;28;20056;-73
2021/05/07 10:19:13;;;;;;;9.68;4.97;;;;;;;24.17;35.69;99187.75;5047805;28;20490;-73
2021/05/07 10:21:43;;;;;;;7.10;4.53;;;;;;;24.38;35.20;99180.81;5066059;28;20041;-73
2021/05/07 10:24:10;;;;;;;;;;;;;;;24.43;35.52;99182.38;5063523;28;20071;-73
2021/05/07 10:26:39;;;;;;;5.13;3.80;;;;;;;24.46;35.41;99187.19;5070935;28;20005;-73
2021/05/07 10:29:25;;;;;;;15.80;5.63;;;;;;;24.47;34.84;99194.53;5064667;28;20126;-75
2021/05/07 10:31:56;;;;;;;5.50;4.35;;;;;;;24.41;36.07;99190.56;5065679;28;20043;-72
2021/05/07 10:34:23;;;;;;;8.70;4.10;;;;;;;24.29;36.33;99182.63;5067531;28;20032;-72
2021/05/07 10:36:52;;;;;;;11.73;4.68;;;;;;;24.48;35.81;99187.56;5047062;28;20075;-71
2021/05/07 10:39:20;;;;;;;22.52;5.13;;;;;;;24.57;36.03;99178.44;5034528;28;20029;-71
2021/05/07 10:41:47;;;;;;;10.50;4.10;;;;;;;24.58;35.54;99177.19;5071243;28;20036;-71
2021/05/07 10:44:14;;;;;;;20.88;4.93;;;;;;;24.70;35.05;99172.84;5071291;28;20021;-71
2021/05/07 10:46:41;;;;;;;11.00;4.05;;;;;;;24.75;34.52;99178.06;5071015;28;20122;-72
2021/05/07 10:49:07;;;;;;;13.73;4.13;;;;;;;24.67;34.65;99183.09;5067739;28;20100;-72
2021/05/07 10:51:33;;;;;;;9.43;3.58;;;;;;;24.41;35.34;99182.00;5065863;28;20037;-72
2021/05/07 10:54:06;;;;;;;10.63;4.32;;;;;;;24.48;35.01;99175.34;5070591;28;20117;-72
2021/05/07 10:56:37;;;;;;;8.35;3.63;;;;;;;24.47;35.26;99170.88;5069960;28;20478;-72
2021/05/07 10:59:22;;;;;;;10.85;3.55;;;;;;;24.52;34.21;99165.44;5065857;28;20075;-72
2021/05/07 11:01:57;;;;;;;13.48;4.30;;;;;;;24.64;33.79;99166.84;5067802;28;20049;-72
2021/05/07 11:04:22;;;;;;;9.85;4.53;;;;;;;24.66;34.44;99154.97;5070619;28;20029;-73
2021/05/07 11:07:00;;;;;;;8.27;3.78;;;;;;;24.37;34.65;99149.81;5069323;28;20043;-72
2021/05/07 11:09:27;;;;;;;6.10;4.15;;;;;;;24.12;35.48;99145.38;5058997;28;20032;-72
2021/05/07 11:11:54;;;;;;;11.18;5.43;;;;;;;24.33;35.64;99143.38;5066979;28;20025;-72
2021/05/07 11:14:25;;;;;;;11.95;4.97;;;;;;;24.54;34.60;99125.78;5034378;28;20120;-72
2021/05/07 11:16:52;;;;;;;19.75;5.00;;;;;;;24.74;34.35;99130.72;5066319;28;20162;-72
2021/05/07 11:19:27;;;;;;;10.38;4.53;;;;;;;25.03;34.05;99132.16;5041933;28;20044;-72
2021/05/07 11:22:11;;;;;;;8.32;4.30;;;;;;;25.15;33.28;99124.94;5043239;28;20040;-73
2021/05/07 11:24:39;;;;;;;11.32;4.40;;;;;;;25.32;32.87;99120.84;5045310;28;20477;-72
2021/05/07 11:27:24;;;;;;;5.85;3.88;;;;;;;25.14;34.54;99117.63;5045028;28;20036;-73
2021/05/07 11:30:03;;;;;;;8.52;4.07;;;;;;;25.16;34.21;99113.06;5045363;28;20407;-72
2021/05/07 11:32:29;;;;;;;12.65;4.85;;;;;;;25.04;34.17;99110.88;5050258;28;20518;-72
2021/05/07 11:34:57;;;;;;;9.38;4.10;;;;;;;25.17;33.99;99108.97;5067256;28;20032;-72